createdAt,value
2019-05-13T00:02:04.890Z,61.70
2019-05-13T00:04:35.347Z,62.90
2019-05-13T00:07:04.987Z,63.20
2019-05-13T00:09:34.500Z,63.60
2019-05-13T00:12:04.673Z,65.60
2019-05-13T00:14:34.622Z,64.50
2019-05-13T00:17:04.522Z,66.00
2019-05-13T00:19:34.086Z,66.00
2019-05-13T00:22:04.589Z,65.50
2019-05-13T00:24:34.170Z,69.70
2019-05-13T00:27:04.229Z,69.40
2019-05-13T00:29:34.887Z,72.10
2019-05-13T00:32:04.958Z,69.50
2019-05-13T00:34:35.553Z,68.80
2019-05-13T00:37:10.823Z,71.50
2019-05-13T00:39:35.979Z,72.50
2019-05-13T00:42:05.306Z,69.50
2019-05-13T00:44:34.651Z,71.10
2019-05-13T00:47:04.560Z,71.20
2019-05-13T00:49:34.712Z,71.20
2019-05-13T00:52:04.834Z,71.60
2019-05-13T00:54:34.367Z,74.10
2019-05-13T00:57:04.480Z,71.60
2019-05-13T00:59:34.212Z,73.20
2019-05-13T01:02:04.036Z,75.60
2019-05-13T01:04:34.019Z,74.50
2019-05-13T01:07:04.398Z,75.30
2019-05-13T01:09:35.075Z,76.30
2019-05-13T01:12:04.688Z,75.30
2019-05-13T01:14:34.375Z,76.60
2019-05-13T01:17:04.189Z,73.80
2019-05-13T01:19:34.430Z,73.60
2019-05-13T01:22:04.211Z,73.00
2019-05-13T01:24:33.907Z,75.60
2019-05-13T01:27:04.602Z,73.60
2019-05-13T01:29:34.594Z,75.70
2019-05-13T01:32:04.647Z,77.00
2019-05-13T01:34:34.223Z,78.20
2019-05-13T01:37:04.381Z,78.80
2019-05-13T01:39:34.984Z,76.90
2019-05-13T01:42:04.889Z,77.40
2019-05-13T01:44:34.270Z,77.50
2019-05-13T01:47:04.603Z,78.20
2019-05-13T01:49:34.394Z,78.00
2019-05-13T01:52:04.200Z,76.30
2019-05-13T01:54:34.018Z,77.50
2019-05-13T01:57:04.499Z,79.30
2019-05-13T01:59:34.701Z,77.60
2019-05-13T02:02:05.912Z,79.80
2019-05-13T02:04:35.316Z,79.80
2019-05-13T02:07:05.747Z,80.00
2019-05-13T02:09:35.590Z,80.70
2019-05-13T02:12:05.274Z,81.10
2019-05-13T02:14:35.614Z,81.40
2019-05-13T02:17:04.971Z,80.20
2019-05-13T02:19:34.277Z,81.50
2019-05-13T02:22:04.168Z,82.80
2019-05-13T02:24:34.848Z,82.50
2019-05-13T02:27:04.533Z,83.30
2019-05-13T02:29:34.384Z,84.30
2019-05-13T02:32:06.018Z,84.60
2019-05-13T02:34:35.464Z,85.60
2019-05-13T02:37:04.856Z,86.40
2019-05-13T02:39:34.185Z,88.50
2019-05-13T02:42:04.092Z,87.90
2019-05-13T02:44:34.636Z,88.90
2019-05-13T02:47:23.374Z,87.10
2019-05-13T02:49:53.453Z,84.80
2019-05-13T02:52:22.932Z,87.20
2019-05-13T02:54:52.930Z,84.60
2019-05-13T02:57:23.397Z,82.10
2019-05-13T02:59:52.996Z,87.40
2019-05-13T03:02:22.627Z,83.50
2019-05-13T03:04:52.510Z,82.80
2019-05-13T03:07:23.305Z,84.90
2019-05-13T03:09:53.028Z,82.40
2019-05-13T03:12:23.106Z,84.20
2019-05-13T03:14:53.378Z,85.30
2019-05-13T03:17:25.272Z,86.00
2019-05-13T03:19:54.684Z,85.40
2019-05-13T03:22:24.037Z,83.00
2019-05-13T03:24:53.459Z,85.60
2019-05-13T03:27:25.190Z,84.40
2019-05-13T03:29:53.919Z,86.40
2019-05-13T03:32:27.244Z,83.70
2019-05-13T03:34:56.464Z,84.00
2019-05-13T03:37:27.098Z,83.30
2019-05-13T03:39:58.509Z,85.10
2019-05-13T03:42:33.236Z,84.40
2019-05-13T03:45:03.210Z,83.00
2019-05-13T03:47:34.636Z,83.50
2019-05-13T03:50:04.435Z,84.70
2019-05-13T03:52:34.003Z,80.50
2019-05-13T03:55:04.303Z,82.60
2019-05-13T03:57:34.088Z,85.30
2019-05-13T04:00:05.624Z,85.00
2019-05-13T04:02:35.413Z,85.00
2019-05-13T04:05:05.715Z,85.00
2019-05-13T04:07:35.115Z,85.40
2019-05-13T04:10:06.284Z,85.60
2019-05-13T04:12:35.666Z,84.00
2019-05-13T04:15:06.669Z,87.20
2019-05-13T04:17:36.064Z,83.70
2019-05-13T04:20:05.763Z,81.80
2019-05-13T04:22:35.569Z,82.80
2019-05-13T04:25:06.198Z,81.50
2019-05-13T04:27:35.707Z,85.50
2019-05-13T04:30:13.358Z,84.40
2019-05-13T04:32:44.174Z,83.80
2019-05-13T04:35:13.572Z,87.10
2019-05-13T04:37:43.305Z,84.40
2019-05-13T04:40:12.918Z,85.50
2019-05-13T04:42:42.736Z,85.90
2019-05-13T04:45:13.439Z,85.20
2019-05-13T04:47:43.401Z,83.80
2019-05-13T04:50:14.157Z,82.80
2019-05-13T04:52:43.593Z,83.30
2019-05-13T04:55:13.424Z,84.80
2019-05-13T04:57:44.000Z,81.70
2019-05-13T05:00:13.628Z,83.90
2019-05-13T05:02:50.131Z,84.10
2019-05-13T05:05:52.736Z,81.40
2019-05-13T05:08:47.221Z,78.70
2019-05-13T05:11:33.599Z,64.80
2019-05-13T05:14:32.492Z,55.00
2019-05-13T05:17:22.986Z,52.90
2019-05-13T05:20:03.516Z,57.50
2019-05-13T05:22:46.826Z,63.80
2019-05-13T05:25:19.296Z,65.70
2019-05-13T05:28:12.602Z,66.50
2019-05-13T05:31:12.829Z,67.10
2019-05-13T05:34:03.948Z,68.90
2019-05-13T05:37:01.262Z,63.20
2019-05-13T05:39:31.586Z,55.70
2019-05-13T05:42:02.166Z,46.20
2019-05-13T05:44:32.866Z,46.60
2019-05-13T05:47:03.300Z,45.30
2019-05-13T05:49:32.975Z,42.60
2019-05-13T05:52:08.656Z,41.40
2019-05-13T05:54:42.132Z,37.30
2019-05-13T05:57:12.143Z,33.90
2019-05-13T05:59:42.594Z,35.40
2019-05-13T06:02:12.514Z,38.40
2019-05-13T06:04:43.282Z,45.20
2019-05-13T06:07:13.167Z,46.00
2019-05-13T06:09:42.536Z,51.30
2019-05-13T06:12:12.510Z,58.20
2019-05-13T06:14:42.395Z,62.80
2019-05-13T06:17:11.907Z,60.80
2019-05-13T06:19:41.872Z,53.00
2019-05-13T06:22:12.336Z,43.60
2019-05-13T06:24:42.280Z,38.90
2019-05-13T06:27:11.978Z,37.60
2019-05-13T06:29:42.362Z,37.60
2019-05-13T06:32:19.208Z,38.00
2019-05-13T06:34:43.172Z,46.10
2019-05-13T06:37:12.543Z,48.70
2019-05-13T06:39:42.401Z,48.70
2019-05-13T06:42:11.824Z,53.40
2019-05-13T06:44:42.126Z,58.10
2019-05-13T06:47:11.682Z,61.30
2019-05-13T06:49:42.874Z,61.00
2019-05-13T06:52:12.162Z,64.80
2019-05-13T06:54:42.015Z,66.70
2019-05-13T06:57:13.484Z,66.70
2019-05-13T06:59:42.919Z,67.40
2019-05-13T07:02:12.581Z,68.20
2019-05-13T07:04:42.195Z,68.50
2019-05-13T07:07:16.749Z,68.50
2019-05-13T07:09:42.827Z,67.60
2019-05-13T07:12:12.341Z,69.70
2019-05-13T07:14:41.734Z,69.60
2019-05-13T07:17:12.316Z,70.20
2019-05-13T07:19:41.888Z,69.70
2019-05-13T07:22:11.753Z,70.00
2019-05-13T07:24:41.583Z,68.70
2019-05-13T07:27:12.248Z,69.70
2019-05-13T07:29:42.519Z,71.40
2019-05-13T07:32:13.072Z,69.30
2019-05-13T07:34:43.987Z,69.50
2019-05-13T07:37:13.476Z,70.50
2019-05-13T07:39:43.943Z,70.30
2019-05-13T07:42:13.416Z,70.00
2019-05-13T07:44:42.874Z,68.80
2019-05-13T07:47:15.561Z,69.10
2019-05-13T07:49:43.272Z,69.80
2019-05-13T07:52:12.667Z,70.30
2019-05-13T07:54:42.205Z,68.80
2019-05-13T07:57:12.272Z,69.80
2019-05-13T07:59:43.168Z,68.40
2019-05-13T08:02:12.596Z,68.60
2019-05-13T08:04:42.234Z,67.50
2019-05-13T08:07:12.217Z,67.00
2019-05-13T08:09:42.813Z,68.20
2019-05-13T08:12:14.561Z,68.70
2019-05-13T08:14:43.783Z,66.90
2019-05-13T08:17:14.422Z,66.20
2019-05-13T08:19:43.744Z,66.20
2019-05-13T08:22:13.074Z,66.90
2019-05-13T08:24:42.764Z,65.60
2019-05-13T08:27:12.229Z,67.10
2019-05-13T08:29:42.114Z,65.30
2019-05-13T08:32:11.776Z,63.50
2019-05-13T08:34:41.866Z,62.10
2019-05-13T08:37:11.589Z,57.30
2019-05-13T08:39:41.604Z,59.30
2019-05-13T08:42:16.154Z,62.60
2019-05-13T08:44:42.346Z,64.40
2019-05-13T08:47:12.177Z,63.20
2019-05-13T08:49:41.767Z,64.40
2019-05-13T08:52:12.183Z,64.30
2019-05-13T08:54:42.015Z,63.20
2019-05-13T08:57:11.956Z,63.60
2019-05-13T08:59:42.213Z,64.30
2019-05-13T09:02:12.121Z,66.00
2019-05-13T09:04:42.174Z,64.90
2019-05-13T09:07:12.249Z,63.60
2019-05-13T09:09:42.141Z,63.30
2019-05-13T09:12:13.190Z,61.70
2019-05-13T09:14:42.686Z,62.20
2019-05-13T09:17:13.511Z,61.20
2019-05-13T09:19:42.850Z,57.90
2019-05-13T09:22:12.567Z,58.70
2019-05-13T09:24:42.979Z,57.60
2019-05-13T09:27:12.368Z,57.10
2019-05-13T09:29:42.665Z,56.80
2019-05-13T09:32:12.408Z,58.40
2019-05-13T09:34:42.345Z,57.90
2019-05-13T09:37:12.280Z,56.70
2019-05-13T09:39:41.790Z,57.70
2019-05-13T09:42:12.683Z,56.10
2019-05-13T09:44:43.357Z,52.50
2019-05-13T09:47:12.870Z,53.30
2019-05-13T09:49:42.315Z,53.60
2019-05-13T09:52:12.138Z,50.40
2019-05-13T09:54:42.456Z,50.70
2019-05-13T09:57:12.619Z,51.80
2019-05-13T09:59:42.437Z,55.30
2019-05-13T10:02:12.643Z,57.30
2019-05-13T10:04:43.617Z,55.30
2019-05-13T10:07:13.360Z,55.00
2019-05-13T10:09:43.164Z,54.90
2019-05-13T10:12:14.952Z,53.20
2019-05-13T10:14:44.363Z,48.90
2019-05-13T10:17:13.717Z,50.20
2019-05-13T10:19:43.039Z,47.10
2019-05-13T10:22:12.846Z,48.20
2019-05-13T10:24:42.664Z,48.00
2019-05-13T10:27:12.649Z,48.30
2019-05-13T10:29:42.903Z,48.30
2019-05-13T10:32:12.659Z,49.90
2019-05-13T10:34:42.914Z,48.10
2019-05-13T10:37:12.530Z,50.30
2019-05-13T10:39:41.958Z,51.00
2019-05-13T10:42:12.112Z,50.90
2019-05-13T10:44:42.531Z,49.00
2019-05-13T10:47:12.288Z,46.20
2019-05-13T10:49:42.655Z,50.40
2019-05-13T10:52:12.451Z,49.60
2019-05-13T10:54:41.962Z,49.70
2019-05-13T10:57:13.552Z,50.70
2019-05-13T10:59:42.504Z,50.30
2019-05-13T11:02:13.352Z,50.70
2019-05-13T11:04:43.050Z,50.10
2019-05-13T11:07:12.420Z,50.20
2019-05-13T11:09:42.087Z,51.50
2019-05-13T11:12:12.479Z,51.30
2019-05-13T11:14:46.657Z,50.30
2019-05-13T11:17:14.056Z,47.90
2019-05-13T11:19:43.492Z,45.90
2019-05-13T11:22:12.916Z,41.20
2019-05-13T11:24:43.443Z,42.30
2019-05-13T11:27:12.927Z,47.50
2019-05-13T11:29:42.388Z,48.30
2019-05-13T11:32:13.308Z,48.40
2019-05-13T11:34:43.038Z,49.50
2019-05-13T11:37:12.592Z,50.30
2019-05-13T11:39:42.912Z,48.90
2019-05-13T11:42:13.526Z,49.40
2019-05-13T11:44:43.596Z,46.80
2019-05-13T11:47:13.024Z,43.90
2019-05-13T11:49:42.790Z,43.80
2019-05-13T11:52:12.272Z,44.60
2019-05-13T11:54:42.511Z,41.80
2019-05-13T11:57:13.341Z,42.20
2019-05-13T11:59:43.254Z,44.30
2019-05-13T12:02:13.795Z,42.80
2019-05-13T12:04:44.028Z,42.40
2019-05-13T12:07:13.762Z,42.50
2019-05-13T12:09:43.289Z,42.10
2019-05-13T12:12:13.914Z,42.60
2019-05-13T12:15:14.948Z,44.90
2019-05-13T12:17:14.657Z,45.50
2019-05-13T12:19:44.064Z,43.70
2019-05-13T12:22:13.581Z,42.80
2019-05-13T12:24:43.075Z,43.00
2019-05-13T12:27:12.512Z,41.20
2019-05-13T12:29:43.055Z,43.30
2019-05-13T12:32:13.790Z,43.10
2019-05-13T12:34:45.746Z,42.00
2019-05-13T12:37:15.469Z,43.80
2019-05-13T12:39:44.826Z,44.10
2019-05-13T12:42:14.528Z,46.10
2019-05-13T12:45:00.520Z,47.00
2019-05-13T12:47:15.027Z,45.80
2019-05-13T12:49:44.490Z,46.70
2019-05-13T12:52:13.871Z,45.50
2019-05-13T12:54:44.497Z,45.90
2019-05-13T12:57:16.181Z,42.30
2019-05-13T12:59:45.380Z,42.20
2019-05-13T13:02:14.939Z,42.80
2019-05-13T13:05:07.772Z,41.80
2019-05-13T13:07:15.321Z,38.70
2019-05-13T13:09:44.740Z,41.60
2019-05-13T13:12:14.180Z,40.50
2019-05-13T13:14:44.611Z,42.10
2019-05-13T13:17:15.314Z,42.30
2019-05-13T13:19:44.735Z,43.00
2019-05-13T13:22:14.315Z,43.10
2019-05-13T13:24:51.599Z,44.70
2019-05-13T13:29:45.959Z,45.10
2019-05-13T13:32:15.335Z,44.50
2019-05-13T13:34:44.702Z,45.30
2019-05-13T13:37:14.114Z,43.10
2019-05-13T13:39:43.847Z,43.80
2019-05-13T13:42:13.457Z,43.00
2019-05-13T13:44:43.205Z,42.60
2019-05-13T13:47:14.681Z,42.30
2019-05-13T13:49:44.840Z,43.90
2019-05-13T13:52:16.257Z,41.20
2019-05-13T13:54:45.298Z,42.40
2019-05-13T13:57:14.686Z,42.30
2019-05-13T14:00:16.321Z,42.70
2019-05-13T14:02:16.103Z,40.80
2019-05-13T14:04:45.460Z,41.50
2019-05-13T14:07:13.056Z,43.30
2019-05-13T14:07:26.238Z,41.80
2019-05-13T14:09:46.102Z,41.50
2019-05-13T14:12:16.571Z,42.40
2019-05-13T14:14:45.996Z,42.80
2019-05-13T14:17:15.399Z,42.80
2019-05-13T14:20:05.059Z,37.70
2019-05-13T14:22:34.671Z,38.50
2019-05-13T14:25:06.137Z,39.00
2019-05-13T14:27:35.651Z,38.20
2019-05-13T14:30:06.815Z,34.00
2019-05-13T14:32:36.191Z,38.30
2019-05-13T14:35:08.788Z,37.30
2019-05-13T14:37:39.053Z,38.10
2019-05-13T14:40:11.952Z,38.10
2019-05-13T14:42:42.697Z,38.70
2019-05-13T14:45:12.374Z,39.30
2019-05-13T14:47:41.892Z,38.90
2019-05-13T14:50:12.292Z,37.70
2019-05-13T14:52:41.859Z,37.40
2019-05-13T14:55:11.485Z,39.60
2019-05-13T14:57:41.912Z,40.30
2019-05-13T15:00:12.087Z,37.70
2019-05-13T15:02:42.105Z,37.00
2019-05-13T15:05:12.213Z,38.30
2019-05-13T15:07:42.282Z,38.00
2019-05-13T15:10:12.061Z,35.80
2019-05-13T15:12:41.708Z,36.90
2019-05-13T15:15:12.705Z,36.00
2019-05-13T15:17:42.684Z,37.50
2019-05-13T15:20:12.694Z,35.80
2019-05-13T15:22:42.541Z,36.30
2019-05-13T15:25:12.308Z,38.30
2019-05-13T15:27:42.163Z,38.00
2019-05-13T15:30:17.881Z,36.70
2019-05-13T15:32:44.684Z,37.90
2019-05-13T15:35:25.006Z,38.70
2019-05-13T15:37:54.388Z,35.30
2019-05-13T15:40:23.798Z,37.80
2019-05-13T15:42:53.172Z,36.40
2019-05-13T15:45:22.587Z,39.60
2019-05-13T15:47:52.014Z,36.20
2019-05-13T15:50:21.583Z,38.00
2019-05-13T15:52:51.088Z,38.30
2019-05-13T15:55:21.416Z,38.50
2019-05-13T15:57:51.802Z,37.70
2019-05-13T16:00:22.023Z,37.10
2019-05-13T16:02:52.224Z,37.50
2019-05-13T16:05:21.754Z,35.90
2019-05-13T16:07:52.311Z,37.50
2019-05-13T16:10:21.918Z,38.00
2019-05-13T16:12:51.831Z,37.80
2019-05-13T16:15:21.792Z,37.70
2019-05-13T16:17:52.120Z,38.40
2019-05-13T16:20:21.737Z,37.40
2019-05-13T16:22:52.688Z,37.70
2019-05-13T16:25:22.273Z,37.70
2019-05-13T16:27:52.098Z,38.00
2019-05-13T16:30:23.277Z,38.60
2019-05-13T16:32:52.676Z,38.50
2019-05-13T16:35:22.044Z,40.00
2019-05-13T16:37:51.764Z,37.40
2019-05-13T16:40:22.279Z,37.90
2019-05-13T16:42:52.108Z,38.80
2019-05-13T16:45:22.094Z,38.80
2019-05-13T16:47:57.714Z,37.40
2019-05-13T16:50:23.547Z,38.10
2019-05-13T16:52:52.867Z,38.40
2019-05-13T16:55:22.232Z,39.30
2019-05-13T16:57:51.546Z,37.90
2019-05-13T17:00:22.432Z,39.80
2019-05-13T17:02:51.957Z,41.10
2019-05-13T17:05:21.383Z,41.10
2019-05-13T17:07:51.536Z,40.70
2019-05-13T17:10:22.507Z,40.30
2019-05-13T17:12:52.434Z,42.00
2019-05-13T17:15:23.027Z,41.00
2019-05-13T17:17:52.393Z,42.70
2019-05-13T17:20:21.887Z,42.70
2019-05-13T17:22:51.476Z,43.60
2019-05-13T17:25:20.935Z,42.40
2019-05-13T17:27:51.494Z,43.10
2019-05-13T17:30:22.838Z,43.80
2019-05-13T17:32:52.179Z,42.70
2019-05-13T17:35:22.029Z,43.90
2019-05-13T17:37:51.534Z,44.70
2019-05-13T17:40:22.439Z,46.90
2019-05-13T17:42:52.014Z,46.10
2019-05-13T17:45:22.014Z,47.30
2019-05-13T17:47:52.020Z,47.50
2019-05-13T17:50:22.210Z,49.30
2019-05-13T17:52:51.806Z,48.50
2019-05-13T17:55:22.297Z,48.20
2019-05-13T17:57:51.970Z,50.30
2019-05-13T18:00:21.843Z,51.00
2019-05-13T18:02:51.521Z,49.80
2019-05-13T18:05:22.602Z,51.30
2019-05-13T18:07:53.169Z,50.10
2019-05-13T18:10:22.776Z,49.90
2019-05-13T18:12:53.195Z,51.20
2019-05-13T18:15:22.662Z,49.70
2019-05-13T18:17:52.371Z,49.60
2019-05-13T18:20:21.904Z,48.90
2019-05-13T18:22:52.367Z,50.30
2019-05-13T18:25:22.416Z,49.80
2019-05-13T18:27:52.229Z,52.90
2019-05-13T18:30:22.415Z,49.70
2019-05-13T18:32:51.919Z,51.10
2019-05-13T18:35:22.029Z,50.80
2019-05-13T18:37:52.703Z,50.40
2019-05-13T18:40:22.055Z,49.60
2019-05-13T18:42:51.530Z,50.50
2019-05-13T18:45:22.000Z,49.60
2019-05-13T18:47:53.374Z,49.40
2019-05-13T18:50:22.712Z,50.10
2019-05-13T18:52:52.516Z,50.20
2019-05-13T18:55:21.998Z,50.30
2019-05-13T18:57:51.842Z,51.00
2019-05-13T19:00:22.770Z,50.60
2019-05-13T19:02:52.138Z,50.40
2019-05-13T19:05:21.563Z,50.30
2019-05-13T19:07:51.384Z,50.40
2019-05-13T19:10:22.034Z,51.80
2019-05-13T19:12:52.123Z,52.80
2019-05-13T19:15:21.644Z,54.20
2019-05-13T19:17:52.093Z,56.00
2019-05-13T19:20:22.871Z,55.90
2019-05-13T19:22:52.331Z,58.40
2019-05-13T19:25:21.661Z,56.20
2019-05-13T19:27:51.716Z,55.30
2019-05-13T19:30:21.388Z,55.70
2019-05-13T19:32:52.036Z,56.10
2019-05-13T19:35:21.857Z,58.40
2019-05-13T19:37:51.741Z,56.50
2019-05-13T19:40:22.242Z,58.50
2019-05-13T19:42:51.760Z,57.30
2019-05-13T19:45:22.190Z,59.80
2019-05-13T19:47:51.962Z,58.10
2019-05-13T19:50:22.368Z,58.40
2019-05-13T19:52:51.991Z,61.00
2019-05-13T19:55:21.347Z,59.30
2019-05-13T19:57:51.645Z,60.60
2019-05-13T20:00:21.275Z,61.20
2019-05-13T20:02:50.658Z,63.30
2019-05-13T20:05:21.125Z,62.50
2019-05-13T20:07:52.310Z,58.90
2019-05-13T20:10:21.854Z,58.30
2019-05-13T20:12:51.435Z,64.90
2019-05-13T20:15:22.115Z,64.20
2019-05-13T20:17:52.160Z,64.40
2019-05-13T20:20:21.677Z,64.50
2019-05-13T20:22:51.773Z,67.40
2019-05-13T20:25:21.784Z,64.80
2019-05-13T20:27:51.605Z,61.40
2019-05-13T20:30:21.956Z,62.10
2019-05-13T20:32:52.604Z,61.60
2019-05-13T20:35:22.051Z,64.80
2019-05-13T20:37:51.665Z,62.90
2019-05-13T20:40:22.164Z,64.20
2019-05-13T20:42:51.732Z,63.80
2019-05-13T20:45:22.443Z,64.70
2019-05-13T20:47:52.311Z,63.00
2019-05-13T20:50:21.876Z,63.80
2019-05-13T20:52:51.729Z,62.20
2019-05-13T20:55:22.039Z,61.60
2019-05-13T20:57:53.031Z,59.00
2019-05-13T21:00:22.974Z,60.20
2019-05-13T21:02:52.285Z,59.10
2019-05-13T21:05:21.979Z,59.70
2019-05-13T21:07:52.374Z,60.70
2019-05-13T21:10:21.705Z,60.50
2019-05-13T21:12:51.538Z,60.20
2019-05-13T21:15:20.991Z,60.70
2019-05-13T21:17:51.570Z,60.00
2019-05-13T21:20:25.700Z,60.00
2019-05-13T21:22:53.223Z,63.90
2019-05-13T21:25:22.705Z,59.40
2019-05-13T21:27:52.063Z,56.80
2019-05-13T21:30:22.260Z,55.40
2019-05-13T21:32:51.884Z,53.90
2019-05-13T21:35:21.399Z,55.50
2019-05-13T21:37:51.265Z,57.00
2019-05-13T21:40:21.868Z,56.20
2019-05-13T21:42:52.635Z,55.90
2019-05-13T21:45:22.358Z,55.70
2019-05-13T21:47:51.782Z,55.40
2019-05-13T21:50:33.625Z,56.80
2019-05-13T21:52:52.213Z,56.30
2019-05-13T21:55:21.751Z,56.60
2019-05-13T21:57:53.055Z,56.30
2019-05-13T22:00:25.867Z,59.50
2019-05-13T22:02:56.915Z,58.00
2019-05-13T22:05:26.372Z,58.20
2019-05-13T22:07:55.812Z,57.80
2019-05-13T22:10:26.270Z,63.50
2019-05-13T22:12:55.630Z,62.90
2019-05-13T22:15:25.051Z,63.20
2019-05-13T22:17:54.387Z,63.00
2019-05-13T22:20:23.746Z,66.10
2019-05-13T22:22:53.163Z,63.00
2019-05-13T22:25:22.478Z,62.50
2019-05-13T22:27:51.972Z,62.30
2019-05-13T22:30:21.537Z,65.60
2019-05-13T22:32:52.265Z,66.90
2019-05-13T22:35:21.898Z,64.70
2019-05-13T22:38:03.356Z,70.50
2019-05-13T22:40:32.699Z,70.00
2019-05-13T22:43:02.068Z,70.60
2019-05-13T22:45:31.420Z,68.90
2019-05-13T22:48:02.653Z,69.50
2019-05-13T22:50:31.820Z,71.60
2019-05-13T22:53:01.436Z,72.50
2019-05-13T22:55:31.285Z,73.80
2019-05-13T22:58:01.569Z,74.10
2019-05-13T23:00:31.702Z,74.00
2019-05-13T23:03:01.788Z,73.40
2019-05-13T23:05:31.332Z,74.30
2019-05-13T23:08:02.219Z,75.90
2019-05-13T23:10:31.892Z,78.00
2019-05-13T23:13:02.113Z,79.30
2019-05-13T23:15:31.666Z,78.10
2019-05-13T23:18:01.344Z,79.60
2019-05-13T23:20:31.921Z,80.40
2019-05-13T23:23:01.426Z,78.10
2019-05-13T23:25:32.050Z,77.10
2019-05-13T23:28:01.593Z,78.90
2019-05-13T23:30:31.286Z,79.20
2019-05-13T23:33:02.252Z,79.30
2019-05-13T23:35:32.201Z,78.80
2019-05-13T23:38:01.762Z,80.00
2019-05-13T23:40:31.610Z,79.90
2019-05-13T23:43:02.040Z,79.40
2019-05-13T23:45:31.668Z,79.30
2019-05-13T23:48:02.091Z,80.80
2019-05-13T23:50:32.085Z,81.40
2019-05-13T23:53:01.694Z,79.50
2019-05-13T23:55:32.127Z,78.20
2019-05-13T23:58:01.984Z,78.60
